Time;durP1;ratioP1;P1;durP2;ratioP2;P2;SDS_P1;SDS_P2;PMS_P1;PMS_P2;Temp;Humidity;BMP_temperature;BMP_pressure;BME280_temperature;BME280_humidity;BME280_pressure;Samples;Min_cycle;Max_cycle;Signal;HPM_P1;HPM_P2
2023/10/25 00:00:37;;;;;;;9.30;9.00;;;10.80;99.90;;;;;;5119105;28;20237;-84
2023/10/25 00:03:05;;;;;;;8.90;8.60;;;10.80;99.90;;;;;;5108385;28;21010;-84
2023/10/25 00:05:37;;;;;;;9.20;8.90;;;10.80;99.90;;;;;;5122580;28;20221;-84
2023/10/25 00:08:05;;;;;;;9.43;9.13;;;10.70;99.90;;;;;;5119079;28;20292;-84
2023/10/25 00:10:45;;;;;;;9.53;9.23;;;10.80;99.90;;;;;;5112617;28;20306;-85
2023/10/25 00:13:21;;;;;;;9.60;9.30;;;10.80;99.90;;;;;;5107629;28;20232;-85
2023/10/25 00:15:49;;;;;;;9.70;9.40;;;10.80;99.90;;;;;;5107665;28;20255;-84
2023/10/25 00:18:28;;;;;;;9.73;9.43;;;10.80;99.90;;;;;;5107322;28;20237;-84
2023/10/25 00:23:53;;;;;;;9.77;9.47;;;10.80;99.90;;;;;;5108314;28;20225;-84
2023/10/25 00:26:32;;;;;;;9.70;9.40;;;10.70;99.90;;;;;;5110851;28;20221;-84
2023/10/25 00:29:00;;;;;;;9.60;9.30;;;10.70;99.90;;;;;;5112230;28;20225;-85
2023/10/25 00:34:09;;;;;;;9.37;9.07;;;10.80;99.90;;;;;;5109312;28;20229;-85
2023/10/25 00:36:41;;;;;;;9.23;8.93;;;10.90;99.90;;;;;;5108983;28;20221;-84
2023/10/25 00:39:08;;;;;;;9.27;8.97;;;11.00;99.90;;;;;;5112962;28;20251;-84
2023/10/25 00:41:37;;;;;;;9.10;8.80;;;11.00;99.90;;;;;;5118090;28;20229;-84
2023/10/25 00:44:06;;;;;;;8.83;8.60;;;11.00;99.90;;;;;;5111456;28;20229;-84
2023/10/25 00:46:45;;;;;;;9.13;8.83;;;11.00;99.90;;;;;;5103913;28;20367;-86
2023/10/25 00:49:13;;;;;;;9.17;8.87;;;11.00;99.90;;;;;;5108884;28;20233;-85
2023/10/25 00:54:31;;;;;;;9.10;8.80;;;11.00;99.90;;;;;;5115099;28;20232;-83
2023/10/25 00:57:10;;;;;;;9.07;8.77;;;10.90;99.90;;;;;;5119322;28;20209;-83
2023/10/25 00:59:50;;;;;;;9.40;9.10;;;10.90;99.90;;;;;;5117914;28;20232;-84
2023/10/25 01:02:20;;;;;;;9.30;9.00;;;10.90;99.90;;;;;;5113784;28;20252;-84
2023/10/25 01:04:47;;;;;;;9.53;9.23;;;10.90;99.90;;;;;;5113322;28;20233;-85
2023/10/25 01:07:19;;;;;;;9.63;9.33;;;10.90;99.90;;;;;;5112084;28;20295;-84
2023/10/25 01:09:47;;;;;;;9.40;9.10;;;10.80;99.90;;;;;;5111517;28;20225;-85
2023/10/25 01:12:15;;;;;;;9.47;9.17;;;10.80;99.90;;;;;;5117649;28;20232;-85
2023/10/25 01:14:54;;;;;;;9.70;9.40;;;10.80;99.90;;;;;;5121710;28;20277;-85
2023/10/25 01:17:23;;;;;;;9.50;9.20;;;10.70;99.90;;;;;;5110246;27;20250;-84
2023/10/25 01:20:02;;;;;;;9.50;9.20;;;10.70;99.90;;;;;;5128552;28;20285;-84
2023/10/25 01:22:33;;;;;;;9.67;9.37;;;10.60;99.90;;;;;;5131346;28;20315;-85
2023/10/25 01:25:00;;;;;;;9.90;9.60;;;10.60;99.90;;;;;;5111940;28;20236;-84
2023/10/25 01:27:39;;;;;;;9.80;9.50;;;10.50;99.90;;;;;;5116386;28;20228;-84
2023/10/25 01:30:08;;;;;;;9.90;9.60;;;10.50;99.90;;;;;;5122216;28;20323;-84
2023/10/25 01:32:48;;;;;;;9.80;9.50;;;10.50;99.90;;;;;;5114815;28;20237;-85
2023/10/25 01:35:18;;;;;;;9.60;9.30;;;10.40;99.90;;;;;;5121735;28;20235;-85
2023/10/25 01:37:48;;;;;;;9.90;9.60;;;10.40;99.90;;;;;;5112673;28;20229;-85
2023/10/25 01:40:16;;;;;;;9.97;9.67;;;10.40;99.90;;;;;;5110114;28;20264;-85
2023/10/25 01:42:44;;;;;;;9.70;9.40;;;10.40;99.90;;;;;;5126462;28;20297;-85
2023/10/25 01:45:13;;;;;;;9.50;9.20;;;10.30;99.90;;;;;;5126928;28;20256;-85
2023/10/25 01:50:31;;;;;;;9.70;9.40;;;10.20;99.90;;;;;;5122366;28;20229;-85
2023/10/25 01:53:02;;;;;;;9.67;9.37;;;10.20;99.90;;;;;;5119551;28;20264;-85
2023/10/25 01:55:29;;;;;;;9.70;9.40;;;10.20;99.90;;;;;;5118262;28;20279;-85
2023/10/25 01:58:08;;;;;;;9.53;9.23;;;10.20;99.90;;;;;;5107988;28;20274;-85
2023/10/25 02:00:36;;;;;;;9.80;9.50;;;10.20;99.90;;;;;;5110710;28;20213;-84
2023/10/25 02:05:45;;;;;;;9.50;9.20;;;10.20;99.90;;;;;;5108881;28;20219;-84
2023/10/25 02:08:16;;;;;;;9.73;9.43;;;10.10;99.90;;;;;;5107982;28;20276;-85
2023/10/25 02:10:43;;;;;;;9.53;9.23;;;10.10;99.90;;;;;;5109222;27;20245;-84
2023/10/25 02:13:21;;;;;;;9.93;9.63;;;10.10;99.90;;;;;;5108714;28;20252;-85
2023/10/25 02:16:01;;;;;;;9.60;9.30;;;10.00;99.90;;;;;;5108575;28;20234;-85
2023/10/25 02:18:29;;;;;;;9.40;9.10;;;10.00;99.90;;;;;;5108718;28;20233;-85
2023/10/25 02:21:08;;;;;;;9.93;9.63;;;10.00;99.90;;;;;;5109386;28;21050;-85
2023/10/25 02:23:40;;;;;;;9.60;9.30;;;10.00;99.90;;;;;;5109279;28;20233;-84
2023/10/25 02:26:07;;;;;;;9.70;9.40;;;10.00;99.90;;;;;;5109733;28;20225;-85
2023/10/25 02:28:35;;;;;;;9.93;9.63;;;9.90;99.90;;;;;;5108906;28;20222;-85
2023/10/25 02:31:15;;;;;;;9.80;9.50;;;9.90;99.90;;;;;;5109335;28;20318;-85
2023/10/25 02:33:44;;;;;;;9.70;9.40;;;9.90;99.90;;;;;;5109450;28;20229;-85
2023/10/25 02:36:12;;;;;;;9.70;9.40;;;9.90;99.90;;;;;;5108776;28;20252;-85
2023/10/25 02:39:00;;;;;;;9.50;9.20;;;9.90;99.90;;;;;;5112777;28;20240;-85
2023/10/25 02:41:39;;;;;;;9.60;9.30;;;9.80;99.90;;;;;;5119821;28;20289;-84
2023/10/25 02:44:07;;;;;;;9.70;9.40;;;9.80;99.90;;;;;;5116791;28;20233;-85
2023/10/25 02:46:47;;;;;;;9.70;9.40;;;9.80;99.90;;;;;;5111058;28;20217;-85
2023/10/25 02:49:15;;;;;;;9.70;9.40;;;9.80;99.90;;;;;;5120498;28;20213;-84
2023/10/25 02:51:54;;;;;;;9.67;9.37;;;9.80;99.90;;;;;;5120581;28;20213;-84
2023/10/25 02:54:25;;;;;;;9.40;9.10;;;9.80;99.90;;;;;;5120176;28;20201;-84
2023/10/25 02:56:54;;;;;;;9.63;9.33;;;9.80;99.90;;;;;;5118204;28;20226;-85
2023/10/25 02:59:32;;;;;;;9.63;9.33;;;9.80;99.90;;;;;;5114834;28;20225;-85
2023/10/25 03:02:13;;;;;;;9.50;9.20;;;9.80;99.90;;;;;;5113713;28;20232;-84
2023/10/25 03:04:40;;;;;;;9.53;9.23;;;9.80;99.90;;;;;;5112197;28;20236;-85
2023/10/25 03:07:19;;;;;;;9.30;9.00;;;9.80;99.90;;;;;;5111272;28;21086;-85
2023/10/25 03:09:49;;;;;;;9.40;9.10;;;9.70;99.90;;;;;;5107192;28;20218;-85
2023/10/25 03:12:17;;;;;;;9.53;9.23;;;9.80;99.90;;;;;;5108535;28;20225;-85
2023/10/25 03:14:56;;;;;;;9.57;9.27;;;9.70;99.90;;;;;;5108927;28;20268;-85
2023/10/25 03:17:24;;;;;;;9.50;9.20;;;9.70;99.90;;;;;;5107931;28;20263;-85
2023/10/25 03:20:04;;;;;;;9.57;9.27;;;9.70;99.90;;;;;;5108553;28;20265;-85
2023/10/25 03:22:34;;;;;;;9.60;9.30;;;9.70;99.90;;;;;;5110875;27;20221;-85
2023/10/25 03:27:49;;;;;;;10.00;9.70;;;9.60;99.90;;;;;;5112162;28;20315;-84
2023/10/25 03:30:28;;;;;;;10.30;10.00;;;9.60;99.90;;;;;;5116565;28;20226;-85
2023/10/25 03:32:57;;;;;;;9.57;9.27;;;9.60;99.90;;;;;;5115058;28;20233;-84
2023/10/25 03:35:26;;;;;;;9.50;9.20;;;9.50;99.90;;;;;;5111942;28;20229;-85
2023/10/25 03:38:05;;;;;;;9.93;9.63;;;9.40;99.90;;;;;;5110114;28;20218;-85
2023/10/25 03:40:36;;;;;;;9.90;9.60;;;9.50;99.90;;;;;;5109187;28;20291;-84
2023/10/25 03:43:03;;;;;;;9.87;9.57;;;9.40;99.90;;;;;;5109226;28;20233;-84
2023/10/25 03:45:42;;;;;;;9.90;9.60;;;9.40;99.90;;;;;;5112177;28;20289;-85
2023/10/25 03:48:10;;;;;;;9.67;9.37;;;9.40;99.90;;;;;;5108147;28;20233;-84
2023/10/25 03:50:40;;;;;;;9.50;9.20;;;9.40;99.90;;;;;;5115389;28;20221;-85
2023/10/25 03:53:20;;;;;;;9.57;9.27;;;9.40;99.90;;;;;;5126594;28;20255;-84
2023/10/25 03:55:59;;;;;;;9.50;9.20;;;9.40;99.90;;;;;;5117074;28;20259;-85
2023/10/25 03:58:29;;;;;;;9.60;9.30;;;9.40;99.90;;;;;;5108522;28;20255;-84
2023/10/25 04:03:42;;;;;;;9.60;9.30;;;9.20;99.90;;;;;;5108771;28;20221;-84
2023/10/25 04:08:50;;;;;;;9.50;9.20;;;9.20;99.90;;;;;;5154712;22;20261;-84
2023/10/25 04:14:06;;;;;;;9.33;9.03;;;9.20;99.90;;;;;;5159092;27;20239;-84
2023/10/25 04:19:16;;;;;;;9.43;9.13;;;9.10;99.90;;;;;;5139657;27;20239;-85
2023/10/25 04:21:45;;;;;;;9.33;9.03;;;9.10;99.90;;;;;;5148826;27;20216;-84
2023/10/25 04:24:14;;;;;;;9.37;9.07;;;9.00;99.90;;;;;;5147822;27;20250;-84
2023/10/25 04:29:29;;;;;;;9.20;8.90;;;9.00;99.90;;;;;;5149161;27;20289;-84
2023/10/25 04:32:08;;;;;;;9.30;9.00;;;8.90;99.90;;;;;;5146568;27;20238;-85
2023/10/25 04:34:37;;;;;;;9.20;8.90;;;8.90;99.90;;;;;;5157939;27;20216;-84
2023/10/25 04:37:16;;;;;;;9.17;8.87;;;8.90;99.90;;;;;;5158652;27;20236;-84
2023/10/25 04:39:44;;;;;;;9.13;8.83;;;8.90;99.90;;;;;;5155872;27;20215;-84
2023/10/25 04:42:17;;;;;;;9.30;9.00;;;8.90;99.90;;;;;;5157694;27;20223;-84
2023/10/25 04:44:44;;;;;;;9.50;9.20;;;8.90;99.90;;;;;;5154962;27;20232;-84
2023/10/25 04:47:13;;;;;;;9.50;9.20;;;8.90;99.90;;;;;;5163643;22;20232;-83
2023/10/25 04:49:40;;;;;;;9.30;9.00;;;8.90;99.90;;;;;;5083490;28;20300;-83
2023/10/25 04:52:08;;;;;;;9.37;9.07;;;8.90;99.90;;;;;;5090710;28;20225;-83
2023/10/25 04:54:35;;;;;;;9.50;9.20;;;8.90;99.90;;;;;;5095307;28;20272;-83
2023/10/25 04:57:02;;;;;;;9.50;9.20;;;8.80;99.90;;;;;;5097585;28;20229;-83
2023/10/25 04:59:31;;;;;;;9.37;9.07;;;8.80;99.90;;;;;;5107906;28;20252;-83
2023/10/25 05:01:58;;;;;;;9.37;9.07;;;8.80;99.90;;;;;;5109186;28;20233;-84
2023/10/25 05:04:25;;;;;;;9.17;8.87;;;8.90;99.90;;;;;;5107521;28;20237;-84
2023/10/25 05:06:53;;;;;;;9.43;9.13;;;8.90;99.90;;;;;;5108422;28;20225;-84
2023/10/25 05:09:21;;;;;;;9.30;9.00;;;8.90;99.90;;;;;;5109064;28;20233;-84
2023/10/25 05:11:57;;;;;;;9.20;8.90;;;8.80;99.90;;;;;;5106936;28;20232;-84
2023/10/25 05:14:25;;;;;;;9.40;9.10;;;8.80;99.90;;;;;;5107770;28;20297;-85
2023/10/25 05:16:55;;;;;;;9.50;9.20;;;8.80;99.90;;;;;;5109574;28;20248;-84
2023/10/25 05:19:23;;;;;;;9.60;9.30;;;8.80;99.90;;;;;;5106978;28;21169;-84
2023/10/25 05:21:53;;;;;;;9.50;9.20;;;8.70;99.90;;;;;;5109143;28;20694;-85
2023/10/25 05:24:20;;;;;;;9.20;8.90;;;8.70;99.90;;;;;;5108666;28;20235;-85
2023/10/25 05:26:48;;;;;;;9.17;8.87;;;8.70;99.90;;;;;;5108981;28;20242;-84
2023/10/25 05:29:16;;;;;;;9.50;9.20;;;8.70;99.90;;;;;;5106328;28;20557;-85
2023/10/25 05:31:45;;;;;;;9.30;9.00;;;8.70;99.90;;;;;;5106809;28;20244;-84
2023/10/25 05:34:15;;;;;;;9.20;8.90;;;8.70;99.90;;;;;;5105822;28;20221;-85
2023/10/25 05:36:43;;;;;;;9.60;9.30;;;8.70;99.90;;;;;;5106384;28;20237;-83
2023/10/25 05:39:11;;;;;;;9.40;9.10;;;8.70;99.90;;;;;;5106269;28;20279;-85
2023/10/25 05:41:41;;;;;;;9.37;9.07;;;8.70;99.90;;;;;;5106346;28;20244;-85
2023/10/25 05:44:15;;;;;;;9.50;9.20;;;8.70;99.90;;;;;;5107293;28;20233;-85
2023/10/25 05:46:43;;;;;;;9.17;8.87;;;8.70;99.90;;;;;;5109646;28;20265;-85
2023/10/25 05:49:13;;;;;;;9.43;9.13;;;8.70;99.90;;;;;;5109415;28;20241;-83
2023/10/25 05:51:43;;;;;;;9.50;9.20;;;8.60;99.90;;;;;;5109328;28;20324;-85
2023/10/25 05:54:12;;;;;;;9.40;9.10;;;8.60;99.90;;;;;;5109522;28;20289;-83
2023/10/25 05:56:40;;;;;;;9.50;9.20;;;8.60;99.90;;;;;;5110369;28;20259;-84
2023/10/25 05:59:16;;;;;;;9.37;9.07;;;8.60;99.90;;;;;;5109275;28;20261;-85
2023/10/25 06:01:53;;;;;;;9.60;9.30;;;8.60;99.90;;;;;;5108892;28;20229;-84
2023/10/25 06:04:23;;;;;;;9.60;9.30;;;8.50;99.90;;;;;;5111307;28;20237;-85
2023/10/25 06:06:51;;;;;;;9.50;9.20;;;8.50;99.90;;;;;;5110408;28;20283;-83
2023/10/25 06:09:22;;;;;;;9.30;9.00;;;8.40;99.90;;;;;;5108556;28;20237;-84
2023/10/25 06:11:53;;;;;;;9.47;9.17;;;8.40;99.90;;;;;;5108688;28;20229;-84
2023/10/25 06:14:23;;;;;;;9.50;9.20;;;8.40;99.90;;;;;;5108449;28;20236;-84
2023/10/25 06:16:51;;;;;;;9.40;9.10;;;8.40;99.90;;;;;;5108487;28;20229;-83
2023/10/25 06:19:18;;;;;;;9.63;9.33;;;8.40;99.90;;;;;;5108316;28;20320;-84
2023/10/25 06:21:47;;;;;;;9.70;9.40;;;8.40;99.90;;;;;;5108928;28;20225;-83
2023/10/25 06:24:14;;;;;;;9.80;9.50;;;8.40;99.90;;;;;;5108963;28;20439;-82
2023/10/25 06:26:42;;;;;;;9.70;9.40;;;8.40;99.90;;;;;;5110611;28;20249;-83
2023/10/25 06:29:09;;;;;;;9.40;9.10;;;8.40;99.90;;;;;;5108803;28;20281;-83
2023/10/25 06:31:39;;;;;;;9.40;9.10;;;8.40;99.90;;;;;;5089694;28;20230;-82
2023/10/25 06:34:09;;;;;;;9.33;9.03;;;8.40;99.90;;;;;;5090012;28;20252;-84
2023/10/25 06:36:38;;;;;;;9.40;9.10;;;8.40;99.90;;;;;;5092185;28;20230;-82
2023/10/25 06:39:19;;;;;;;9.40;9.10;;;8.50;99.90;;;;;;5091579;28;20341;-83
2023/10/25 06:41:49;;;;;;;9.80;9.50;;;8.50;99.90;;;;;;5090729;28;20214;-83
2023/10/25 06:44:17;;;;;;;9.60;9.30;;;8.50;99.90;;;;;;5093555;28;20214;-83
2023/10/25 06:46:45;;;;;;;9.63;9.33;;;8.50;99.90;;;;;;5099858;28;20218;-82
2023/10/25 06:49:13;;;;;;;9.73;9.43;;;8.50;99.90;;;;;;5089138;28;20238;-83
2023/10/25 06:51:42;;;;;;;9.70;9.40;;;8.50;99.90;;;;;;5086474;28;20284;-84
2023/10/25 06:54:15;;;;;;;9.20;8.90;;;8.60;99.90;;;;;;5087478;28;20234;-83
2023/10/25 06:56:44;;;;;;;9.50;9.20;;;8.60;99.90;;;;;;5086232;28;20253;-84
2023/10/25 06:59:18;;;;;;;9.50;9.20;;;8.60;99.90;;;;;;5086449;28;20269;-84
2023/10/25 07:01:54;;;;;;;9.30;9.00;;;8.70;99.90;;;;;;5088074;28;20214;-85
2023/10/25 07:04:24;;;;;;;9.20;8.90;;;8.70;99.90;;;;;;5087320;28;20248;-84
2023/10/25 07:06:54;;;;;;;9.37;9.07;;;8.80;99.90;;;;;;5089350;28;20230;-87
2023/10/25 07:09:23;;;;;;;9.70;9.40;;;8.90;99.90;;;;;;5089818;28;20276;-85
2023/10/25 07:11:51;;;;;;;9.90;9.60;;;8.80;99.90;;;;;;5088724;28;20257;-86
2023/10/25 07:14:20;;;;;;;9.90;9.60;;;8.80;99.90;;;;;;5088369;28;20249;-85
2023/10/25 07:16:47;;;;;;;9.90;9.60;;;8.80;99.90;;;;;;5089017;28;20237;-84
2023/10/25 07:19:15;;;;;;;9.60;9.30;;;8.80;99.90;;;;;;5088718;28;20282;-85
2023/10/25 07:21:44;;;;;;;9.50;9.20;;;8.80;99.90;;;;;;5089614;28;20230;-84
2023/10/25 07:24:11;;;;;;;9.63;9.33;;;8.80;99.90;;;;;;5088307;28;20242;-83
2023/10/25 07:26:43;;;;;;;9.47;9.17;;;8.70;99.90;;;;;;5088345;28;20288;-85
2023/10/25 07:29:11;;;;;;;9.10;8.80;;;8.80;99.90;;;;;;5085862;28;20230;-85
2023/10/25 07:31:38;;;;;;;9.20;8.90;;;8.80;99.90;;;;;;5087691;28;20226;-84
2023/10/25 07:34:08;;;;;;;9.10;8.80;;;8.90;99.90;;;;;;5088527;28;20226;-84
2023/10/25 07:36:36;;;;;;;9.47;9.17;;;8.90;99.90;;;;;;5088386;28;20253;-86
2023/10/25 07:39:06;;;;;;;9.60;9.30;;;8.90;99.90;;;;;;5087143;28;20261;-85
2023/10/25 07:41:38;;;;;;;10.10;9.80;;;8.90;99.90;;;;;;5088474;28;20234;-85
2023/10/25 07:44:07;;;;;;;9.70;9.40;;;9.00;99.90;;;;;;5090463;28;20226;-86
2023/10/25 07:46:34;;;;;;;9.90;9.60;;;9.00;99.90;;;;;;5088333;28;20229;-86
2023/10/25 07:49:06;;;;;;;9.77;9.47;;;9.10;99.90;;;;;;5088517;28;20241;-84
2023/10/25 07:51:36;;;;;;;9.60;9.30;;;9.10;99.90;;;;;;5087485;28;20228;-85
2023/10/25 07:54:06;;;;;;;9.67;9.37;;;9.10;99.90;;;;;;5093301;28;20281;-84
2023/10/25 07:56:34;;;;;;;9.60;9.30;;;9.10;99.90;;;;;;5100555;28;20230;-85
2023/10/25 07:59:10;;;;;;;9.70;9.40;;;9.10;99.90;;;;;;5099913;28;20291;-88
2023/10/25 08:01:40;;;;;;;9.60;9.30;;;9.10;99.90;;;;;;5098715;28;20227;-86
2023/10/25 08:04:21;;;;;;;;;;;;;;;;;;;;;
2023/10/25 08:06:49;;;;;;;9.30;9.00;;;9.20;99.90;;;;;;5076833;28;20554;-87
2023/10/25 08:09:21;;;;;;;9.53;9.23;;;9.30;99.90;;;;;;5069270;28;20226;-86
2023/10/25 08:11:48;;;;;;;9.30;9.00;;;9.40;99.90;;;;;;5086486;28;20230;-86
2023/10/25 08:14:27;;;;;;;9.50;9.20;;;9.40;99.90;;;;;;5069822;28;20238;-87
2023/10/25 08:16:54;;;;;;;9.40;9.10;;;9.40;99.90;;;;;;5087218;28;20232;-84
2023/10/25 08:19:22;;;;;;;9.30;9.00;;;9.40;99.90;;;;;;5087877;28;20226;-86
2023/10/25 08:21:49;;;;;;;9.03;8.73;;;9.50;99.90;;;;;;5097757;28;20222;-86
2023/10/25 08:24:19;;;;;;;9.40;9.10;;;9.40;99.90;;;;;;5090908;28;20284;-88
2023/10/25 08:26:52;;;;;;;9.33;9.03;;;9.40;99.90;;;;;;5100127;28;20259;-86
2023/10/25 08:29:23;;;;;;;9.50;9.20;;;9.40;99.90;;;;;;5084447;28;20245;-85
2023/10/25 08:31:52;;;;;;;9.40;9.10;;;9.40;99.90;;;;;;5091481;28;20317;-83
2023/10/25 08:34:20;;;;;;;9.30;9.00;;;9.50;99.90;;;;;;5091333;28;20230;-83
2023/10/25 08:36:49;;;;;;;9.37;9.07;;;9.50;99.90;;;;;;5091457;28;20230;-85
2023/10/25 08:39:21;;;;;;;9.20;8.90;;;9.50;99.90;;;;;;5077693;28;20223;-83
2023/10/25 08:42:05;;;;;;;9.00;8.70;;;9.50;99.90;;;;;;5093852;28;20233;-82
2023/10/25 08:44:43;;;;;;;8.97;8.67;;;9.40;99.90;;;;;;5105555;28;20348;-85
2023/10/25 08:47:11;;;;;;;8.67;8.37;;;9.40;99.90;;;;;;5091219;28;20255;-84
2023/10/25 08:49:39;;;;;;;8.90;8.60;;;9.40;99.90;;;;;;5105304;28;20241;-84
2023/10/25 08:52:07;;;;;;;8.90;8.60;;;9.50;99.90;;;;;;5089489;28;20376;-84
2023/10/25 08:54:36;;;;;;;9.03;8.73;;;9.60;99.90;;;;;;5090323;28;20344;-83
2023/10/25 08:57:07;;;;;;;8.90;8.60;;;9.60;99.90;;;;;;5089694;28;20244;-83
2023/10/25 08:59:46;;;;;;;8.67;8.37;;;9.50;99.90;;;;;;5091529;28;20257;-83
2023/10/25 09:02:14;;;;;;;8.97;8.67;;;9.50;99.90;;;;;;5090384;28;20270;-84
2023/10/25 09:04:59;;;;;;;8.90;8.60;;;9.50;99.90;;;;;;5091484;28;20242;-83
2023/10/25 09:07:31;;;;;;;8.83;8.53;;;9.60;99.90;;;;;;5090334;28;20245;-84
2023/10/25 09:10:00;;;;;;;9.10;8.80;;;9.50;99.90;;;;;;5089809;28;20234;-83
2023/10/25 09:12:31;;;;;;;9.00;8.70;;;9.50;99.90;;;;;;5089186;28;20241;-85
2023/10/25 09:15:01;;;;;;;9.00;8.70;;;9.60;99.90;;;;;;5091057;28;20230;-82
2023/10/25 09:17:36;;;;;;;8.90;8.60;;;9.60;99.90;;;;;;5090464;28;20234;-84
2023/10/25 09:20:08;;;;;;;9.00;8.70;;;9.60;99.90;;;;;;5087772;28;20219;-85
2023/10/25 09:22:37;;;;;;;8.97;8.67;;;9.60;99.90;;;;;;5089935;28;20222;-87
2023/10/25 09:25:09;;;;;;;8.90;8.60;;;9.60;99.90;;;;;;5091063;28;20301;-84
2023/10/25 09:27:48;;;;;;;8.87;8.57;;;9.60;99.90;;;;;;5090194;28;20241;-88
2023/10/25 09:30:20;;;;;;;8.87;8.57;;;9.60;99.90;;;;;;5092916;28;20218;-84
2023/10/25 09:32:48;;;;;;;8.83;8.53;;;9.60;99.90;;;;;;5090565;28;20285;-84
2023/10/25 09:35:19;;;;;;;8.60;8.40;;;9.60;99.90;;;;;;5089870;28;20236;-84
2023/10/25 09:38:15;;;;;;;8.60;8.40;;;9.60;99.90;;;;;;5082274;28;20234;-86
2023/10/25 09:40:44;;;;;;;8.80;8.50;;;9.80;99.90;;;;;;5085698;28;20237;-86
2023/10/25 09:43:19;;;;;;;9.23;8.93;;;9.80;99.90;;;;;;5094017;28;20237;-84
2023/10/25 09:45:54;;;;;;;9.20;8.90;;;9.80;99.90;;;;;;5094345;28;20234;-85
2023/10/25 09:48:22;;;;;;;8.77;8.47;;;9.90;99.90;;;;;;5091391;28;20233;-85
2023/10/25 09:51:07;;;;;;;8.80;8.50;;;9.90;99.90;;;;;;5078337;28;21145;-85
2023/10/25 09:53:57;;;;;;;8.63;8.43;;;10.00;99.90;;;;;;5072723;28;20230;-85
2023/10/25 09:56:25;;;;;;;9.10;8.80;;;10.10;99.90;;;;;;5073855;28;20235;-83
2023/10/25 09:58:54;;;;;;;8.70;8.50;;;10.20;99.90;;;;;;5071635;28;20234;-83
2023/10/25 10:01:23;;;;;;;9.00;8.70;;;10.20;99.90;;;;;;5069349;28;20257;-83
2023/10/25 10:03:57;;;;;;;8.70;8.50;;;10.20;99.90;;;;;;5069859;28;20296;-84
2023/10/25 10:06:37;;;;;;;9.10;8.80;;;10.30;99.90;;;;;;5069223;28;20234;-84
2023/10/25 10:09:15;;;;;;;9.00;8.70;;;10.40;99.90;;;;;;5069808;28;20329;-85
2023/10/25 10:11:50;;;;;;;8.80;8.60;;;10.50;99.90;;;;;;5069326;28;20234;-84
2023/10/25 10:14:33;;;;;;;8.90;8.60;;;10.40;99.90;;;;;;5067727;28;20284;-81
2023/10/25 10:17:09;;;;;;;9.20;8.90;;;10.50;99.90;;;;;;5068376;28;20285;-83
2023/10/25 10:19:40;;;;;;;9.00;8.70;;;10.50;99.90;;;;;;5070406;28;20253;-85
2023/10/25 10:22:11;;;;;;;9.40;9.10;;;10.50;99.90;;;;;;5070222;28;20249;-85
2023/10/25 10:24:46;;;;;;;9.60;9.30;;;10.60;99.90;;;;;;5070168;28;20227;-84
2023/10/25 10:27:16;;;;;;;8.20;8.00;;;10.80;99.90;;;;;;5070112;28;20234;-84
2023/10/25 10:29:46;;;;;;;9.27;8.97;;;10.90;99.90;;;;;;5071242;28;20252;-84
2023/10/25 10:32:15;;;;;;;9.20;8.90;;;11.10;99.90;;;;;;5070379;28;20242;-84
2023/10/25 10:34:45;;;;;;;9.50;9.20;;;11.20;99.90;;;;;;5069001;28;20230;-83
2023/10/25 10:37:16;;;;;;;9.37;9.07;;;11.40;99.90;;;;;;5070777;28;20242;-83
2023/10/25 10:40:14;;;;;;;9.50;9.20;;;11.50;99.90;;;;;;5070895;28;20230;-83
2023/10/25 10:42:43;;;;;;;10.00;9.70;;;11.60;99.90;;;;;;5071849;28;20239;-82
2023/10/25 10:45:15;;;;;;;10.40;10.10;;;11.60;99.90;;;;;;5070920;28;20242;-83
2023/10/25 10:47:45;;;;;;;10.10;9.80;;;11.60;99.90;;;;;;5074723;28;20254;-83
2023/10/25 10:50:14;;;;;;;9.80;9.50;;;11.70;99.90;;;;;;5076225;28;20238;-83
2023/10/25 10:52:42;;;;;;;10.37;10.07;;;11.70;99.90;;;;;;5076366;28;20346;-83
2023/10/25 10:55:16;;;;;;;10.30;10.00;;;11.90;99.90;;;;;;5075935;28;20207;-83
2023/10/25 10:57:43;;;;;;;10.40;10.10;;;12.10;99.90;;;;;;5077726;28;20234;-84
2023/10/25 11:00:13;;;;;;;10.20;9.90;;;12.30;99.90;;;;;;5078580;28;20215;-84
2023/10/25 11:02:45;;;;;;;10.50;10.20;;;12.60;99.90;;;;;;5078445;28;20250;-83
2023/10/25 11:05:14;;;;;;;10.50;10.20;;;12.60;99.90;;;;;;5078410;28;20243;-84
2023/10/25 11:07:42;;;;;;;10.40;10.10;;;12.60;99.90;;;;;;5078277;28;20261;-82
2023/10/25 11:10:10;;;;;;;10.30;10.00;;;12.60;99.90;;;;;;5079820;28;20219;-83
2023/10/25 11:12:38;;;;;;;10.73;10.43;;;12.70;99.90;;;;;;5078128;28;20227;-84
2023/10/25 11:15:07;;;;;;;10.90;10.60;;;12.60;99.90;;;;;;5077618;28;20230;-84
2023/10/25 11:17:35;;;;;;;10.77;10.47;;;12.60;99.90;;;;;;5077877;28;20231;-83
2023/10/25 11:20:06;;;;;;;10.73;10.43;;;12.50;99.90;;;;;;5077168;28;20235;-86
2023/10/25 11:22:36;;;;;;;10.87;10.57;;;12.50;99.90;;;;;;5097522;28;20222;-84
2023/10/25 11:25:10;;;;;;;10.70;10.40;;;12.40;99.90;;;;;;5108047;28;20220;-85
2023/10/25 11:27:38;;;;;;;10.50;10.20;;;12.50;99.90;;;;;;5116332;28;20237;-85
2023/10/25 11:30:07;;;;;;;10.67;10.37;;;12.50;99.90;;;;;;5116347;28;20240;-83
2023/10/25 11:32:35;;;;;;;10.40;10.10;;;12.50;99.90;;;;;;5117315;28;20225;-85
2023/10/25 11:35:07;;;;;;;10.67;10.37;;;12.40;99.90;;;;;;5119408;28;20244;-85
2023/10/25 11:37:42;;;;;;;10.50;10.20;;;12.40;99.90;;;;;;5120363;28;20229;-84
2023/10/25 11:40:10;;;;;;;10.60;10.30;;;12.30;99.90;;;;;;5110504;28;20225;-84
2023/10/25 11:42:38;;;;;;;10.47;10.17;;;12.30;99.90;;;;;;5107845;28;20256;-83
2023/10/25 11:45:07;;;;;;;10.20;9.90;;;12.30;99.90;;;;;;5109414;28;20218;-84
2023/10/25 11:47:37;;;;;;;10.30;10.00;;;12.20;99.90;;;;;;5110031;28;20233;-83
2023/10/25 11:50:07;;;;;;;10.40;10.10;;;12.20;99.90;;;;;;5110422;28;20236;-84
2023/10/25 11:52:35;;;;;;;10.30;10.00;;;12.20;99.90;;;;;;5109729;28;20255;-85
2023/10/25 11:55:03;;;;;;;10.00;9.70;;;12.20;99.90;;;;;;5108771;28;20213;-85
2023/10/25 11:57:32;;;;;;;9.90;9.60;;;12.10;99.90;;;;;;5111867;28;20264;-85
2023/10/25 12:00:00;;;;;;;10.00;9.70;;;12.10;99.90;;;;;;5110824;28;20264;-85
2023/10/25 12:02:28;;;;;;;10.00;9.70;;;12.20;99.90;;;;;;5110042;28;20241;-85
2023/10/25 12:04:57;;;;;;;10.03;9.73;;;12.20;99.90;;;;;;5106029;28;20308;-85
2023/10/25 12:07:25;;;;;;;9.80;9.50;;;12.20;99.90;;;;;;5107521;28;20263;-84
2023/10/25 12:09:54;;;;;;;9.70;9.40;;;12.20;99.90;;;;;;5107174;28;20272;-83
2023/10/25 12:12:22;;;;;;;9.90;9.60;;;12.20;99.90;;;;;;5107097;28;20245;-84
2023/10/25 12:14:51;;;;;;;9.80;9.50;;;12.30;99.90;;;;;;5106566;28;20225;-85
2023/10/25 12:17:18;;;;;;;9.50;9.20;;;12.30;99.90;;;;;;5108319;28;20234;-83
2023/10/25 12:19:51;;;;;;;9.50;9.20;;;12.30;99.90;;;;;;5107565;28;20241;-85
2023/10/25 12:22:20;;;;;;;9.57;9.27;;;12.30;99.90;;;;;;5102386;28;20233;-84
2023/10/25 12:24:48;;;;;;;9.83;9.53;;;12.40;99.90;;;;;;5107000;28;20248;-83
2023/10/25 12:27:16;;;;;;;9.90;9.60;;;12.40;99.90;;;;;;5106799;28;20233;-86
2023/10/25 12:29:44;;;;;;;9.53;9.23;;;12.50;99.90;;;;;;5107436;28;20275;-84
2023/10/25 12:32:11;;;;;;;9.70;9.40;;;12.50;99.90;;;;;;5105862;28;20241;-85
2023/10/25 12:34:40;;;;;;;9.40;9.10;;;12.50;99.90;;;;;;5105562;28;20229;-84
2023/10/25 12:37:08;;;;;;;9.47;9.17;;;12.50;99.90;;;;;;5104715;28;20261;-84
2023/10/25 12:39:35;;;;;;;9.80;9.50;;;12.50;99.90;;;;;;5097946;28;20230;-83
2023/10/25 12:42:04;;;;;;;9.67;9.37;;;12.40;99.90;;;;;;5095950;28;20253;-84
2023/10/25 12:44:31;;;;;;;9.60;9.30;;;12.40;99.90;;;;;;5086063;28;20214;-84
2023/10/25 12:47:01;;;;;;;10.20;9.90;;;12.40;99.90;;;;;;5086152;28;20233;-83
2023/10/25 12:49:28;;;;;;;9.97;9.67;;;12.40;99.90;;;;;;5085434;28;20245;-84
2023/10/25 12:51:55;;;;;;;9.87;9.57;;;12.30;99.90;;;;;;5086357;28;20281;-83
2023/10/25 12:54:22;;;;;;;9.70;9.40;;;12.30;99.90;;;;;;5101274;28;20237;-86
2023/10/25 12:56:50;;;;;;;9.83;9.53;;;12.30;99.90;;;;;;5115239;28;20244;-86
2023/10/25 12:59:19;;;;;;;9.80;9.50;;;12.40;99.90;;;;;;5108277;28;20241;-84
2023/10/25 13:01:49;;;;;;;9.87;9.57;;;12.40;99.90;;;;;;5111925;28;20229;-86
2023/10/25 13:04:16;;;;;;;9.70;9.40;;;12.40;99.90;;;;;;5109202;28;20263;-84
2023/10/25 13:06:44;;;;;;;9.47;9.17;;;12.40;99.90;;;;;;5108998;28;20229;-83
2023/10/25 13:09:12;;;;;;;9.53;9.23;;;12.40;99.90;;;;;;5109106;28;20248;-83
2023/10/25 13:11:39;;;;;;;9.60;9.30;;;12.40;99.90;;;;;;5109069;28;20240;-84
2023/10/25 13:14:06;;;;;;;9.50;9.20;;;12.50;99.90;;;;;;5107962;28;20269;-83
2023/10/25 13:16:35;;;;;;;9.17;8.87;;;12.60;99.90;;;;;;5108078;28;20233;-83
2023/10/25 13:19:02;;;;;;;9.23;8.93;;;12.60;99.90;;;;;;5106923;28;20233;-83
2023/10/25 13:21:29;;;;;;;9.13;8.83;;;12.70;99.90;;;;;;5108959;28;20222;-85
2023/10/25 13:23:56;;;;;;;9.40;9.10;;;12.80;99.90;;;;;;5108192;28;20320;-84
2023/10/25 13:26:24;;;;;;;9.40;9.10;;;12.70;99.90;;;;;;5103702;28;20263;-84
2023/10/25 13:28:54;;;;;;;9.47;9.17;;;12.70;99.90;;;;;;5108469;28;20261;-84
2023/10/25 13:31:21;;;;;;;9.70;9.40;;;12.70;99.90;;;;;;5108254;28;20293;-84
2023/10/25 13:33:50;;;;;;;9.80;9.50;;;12.70;99.90;;;;;;5110943;28;20236;-83
2023/10/25 13:36:17;;;;;;;9.70;9.40;;;12.70;99.90;;;;;;5088675;28;20230;-85
2023/10/25 13:38:44;;;;;;;9.70;9.40;;;12.80;99.90;;;;;;5088190;28;20238;-84